createdAt,value
2023-06-30T00:00:01.964Z,97.94
2023-06-30T00:05:01.464Z,98.03
2023-06-30T00:10:01.973Z,98.43
2023-06-30T00:15:01.703Z,98.75
2023-06-30T00:20:02.186Z,99.5
2023-06-30T00:25:01.432Z,100.27
2023-06-30T00:30:01.879Z,100.89
2023-06-30T00:35:01.379Z,101.38
2023-06-30T00:40:02.112Z,101.78
2023-06-30T00:45:02.117Z,102.04
2023-06-30T00:50:02.169Z,102.34
2023-06-30T00:55:01.452Z,102.44
2023-06-30T01:00:01.633Z,102.82
2023-06-30T01:05:01.642Z,102.89
2023-06-30T01:10:02.221Z,103.12
2023-06-30T01:15:01.550Z,103.16
2023-06-30T01:20:02.017Z,103.55
2023-06-30T01:25:01.297Z,103.65
2023-06-30T01:30:01.848Z,103.57
2023-06-30T01:35:02.202Z,103.55
2023-06-30T01:40:02.082Z,103.64
2023-06-30T01:45:02.104Z,103.72
2023-06-30T01:50:02.009Z,103.81
2023-06-30T01:55:01.999Z,103.87
2023-06-30T02:00:02.103Z,103.81
2023-06-30T02:05:01.527Z,103.87
2023-06-30T02:10:01.833Z,103.84
2023-06-30T02:15:01.939Z,103.84
2023-06-30T02:20:02.223Z,103.98
2023-06-30T02:25:01.410Z,104.03
2023-06-30T02:30:01.875Z,104.05
2023-06-30T02:35:01.419Z,104.09
2023-06-30T02:40:01.798Z,104.15
2023-06-30T02:45:01.939Z,104.1
2023-06-30T02:50:01.879Z,104.3
2023-06-30T02:55:02.042Z,104.17
2023-06-30T03:00:01.614Z,104.22
2023-06-30T03:05:02.412Z,104.37
2023-06-30T03:10:01.421Z,104.3
2023-06-30T03:15:01.824Z,104.3
2023-06-30T03:20:01.852Z,104.3
2023-06-30T03:25:01.429Z,104.36
2023-06-30T03:30:01.670Z,104.42
2023-06-30T03:35:01.792Z,104.24
2023-06-30T03:40:02.219Z,104.33
2023-06-30T03:45:02.031Z,104.47
2023-06-30T03:50:02.555Z,104.52
2023-06-30T03:55:02.695Z,104.49
2023-06-30T04:00:01.772Z,104.52
2023-06-30T04:05:02.109Z,104.51
2023-06-30T04:10:02.143Z,104.2
2023-06-30T04:15:01.952Z,104.3
2023-06-30T04:20:02.002Z,104.36
2023-06-30T04:25:02.319Z,104.25
2023-06-30T04:30:01.988Z,104.18
2023-06-30T04:35:02.244Z,104.16
2023-06-30T04:40:02.104Z,104.27
2023-06-30T04:45:02.189Z,104.23
2023-06-30T04:50:02.138Z,104.42
2023-06-30T04:55:02.087Z,104.2
2023-06-30T05:00:02.167Z,104.07
2023-06-30T05:05:01.979Z,104.07
2023-06-30T05:10:02.072Z,104.3
2023-06-30T05:15:02.097Z,104.2
2023-06-30T05:20:01.894Z,104.18
2023-06-30T05:25:01.838Z,104.23
2023-06-30T05:30:01.860Z,104.26
2023-06-30T05:35:01.957Z,104.1
2023-06-30T05:40:01.728Z,104.06
2023-06-30T05:45:01.988Z,103.95
2023-06-30T05:50:01.838Z,104.14
2023-06-30T05:55:01.666Z,103.44
2023-06-30T06:00:01.886Z,103.46
2023-06-30T06:05:02.144Z,103.79
2023-06-30T06:10:02.190Z,103.97
2023-06-30T06:15:01.291Z,103.92
2023-06-30T06:20:01.833Z,104.21
2023-06-30T06:25:01.553Z,104.2
2023-06-30T06:30:01.780Z,104.12
2023-06-30T06:35:02.026Z,104.13
2023-06-30T06:40:02.071Z,104.34
2023-06-30T06:45:01.573Z,104.23
2023-06-30T06:50:02.102Z,104.1
2023-06-30T06:55:01.935Z,104.25
2023-06-30T07:00:05.459Z,104.03
2023-06-30T07:05:01.351Z,104.09
2023-06-30T07:10:01.877Z,104.27
2023-06-30T07:15:01.942Z,104.03
2023-06-30T07:20:02.143Z,103.88
2023-06-30T07:25:02.075Z,103.91
2023-06-30T07:30:02.136Z,103.65
2023-06-30T07:35:01.497Z,102.98
2023-06-30T07:40:12.240Z,102.59
2023-06-30T07:45:01.921Z,103.13
2023-06-30T07:50:02.045Z,102.99
2023-06-30T07:55:01.256Z,102.91
2023-06-30T08:00:02.149Z,102.59
2023-06-30T08:05:02.166Z,102.38
2023-06-30T08:10:01.881Z,101.59
2023-06-30T08:15:02.210Z,100.34
2023-06-30T08:20:01.697Z,99.04
2023-06-30T08:25:01.825Z,98.3
2023-06-30T08:30:02.080Z,100.48
2023-06-30T08:35:01.412Z,94.28
2023-06-30T08:40:02.153Z,95.21
2023-06-30T08:45:02.165Z,90.01
2023-06-30T08:50:01.387Z,93.21
2023-06-30T08:55:02.179Z,90.45
2023-06-30T09:00:01.529Z,86.34
2023-06-30T09:05:02.169Z,85.91
2023-06-30T09:10:01.461Z,86.91
2023-06-30T09:15:01.888Z,83.92
2023-06-30T09:20:02.086Z,82.09
2023-06-30T09:25:01.228Z,76.57
2023-06-30T09:30:01.801Z,80.27
2023-06-30T09:35:01.349Z,79.45
2023-06-30T09:40:01.586Z,78.68
2023-06-30T09:45:01.317Z,76.52
2023-06-30T09:50:01.810Z,78.35
2023-06-30T09:55:01.951Z,80.09
2023-06-30T10:00:01.313Z,80.48
2023-06-30T10:05:02.000Z,78.67
2023-06-30T10:10:01.398Z,80.73
2023-06-30T10:15:01.423Z,79.41
2023-06-30T10:20:02.717Z,76.58
2023-06-30T10:25:01.936Z,79.43
2023-06-30T10:30:02.119Z,75.71
2023-06-30T10:35:02.218Z,74.53
2023-06-30T10:40:03.469Z,71.73
2023-06-30T10:45:02.225Z,75.9
2023-06-30T10:50:01.693Z,74.04
2023-06-30T10:55:01.461Z,74.04
2023-06-30T11:00:01.896Z,66.87
2023-06-30T11:05:01.362Z,70.26
2023-06-30T11:10:04.486Z,66.01
2023-06-30T11:15:01.313Z,69.05
2023-06-30T11:20:01.836Z,63.77
2023-06-30T11:25:02.146Z,71.29
2023-06-30T11:30:01.435Z,69.66
2023-06-30T11:35:01.971Z,65.96
2023-06-30T11:40:01.951Z,63.56
2023-06-30T11:45:01.675Z,63.99
2023-06-30T11:50:02.095Z,60.12
2023-06-30T11:55:02.226Z,58.37
2023-06-30T12:00:01.422Z,64.93
2023-06-30T12:05:02.067Z,59.49
2023-06-30T12:10:02.084Z,63.59
2023-06-30T12:15:01.637Z,61.99
2023-06-30T12:20:02.053Z,65.54
2023-06-30T12:25:01.364Z,64.9
2023-06-30T12:30:02.129Z,59.23
2023-06-30T12:35:02.303Z,65.99
2023-06-30T12:40:01.670Z,63.05
2023-06-30T12:45:01.286Z,64.48
2023-06-30T12:50:01.729Z,64.69
2023-06-30T12:55:01.837Z,63.03
2023-06-30T13:00:02.002Z,65.12
2023-06-30T13:05:01.344Z,65.8
2023-06-30T13:10:02.194Z,62
2023-06-30T13:15:01.366Z,62.32
2023-06-30T13:20:01.895Z,62.46
2023-06-30T13:25:02.241Z,62.35
2023-06-30T13:30:01.658Z,65.9
2023-06-30T13:35:01.926Z,65.28
2023-06-30T13:40:01.298Z,62.69
2023-06-30T13:45:01.615Z,65.04
2023-06-30T13:50:01.960Z,64.55
2023-06-30T13:55:01.968Z,65.54
2023-06-30T14:00:01.607Z,63.81
2023-06-30T14:05:02.031Z,62.29
2023-06-30T14:10:01.307Z,66.32
2023-06-30T14:15:01.669Z,62.46
2023-06-30T14:20:01.962Z,60.91
2023-06-30T14:25:02.092Z,63.16
2023-06-30T14:30:01.631Z,65.84
2023-06-30T14:35:02.040Z,64.49
2023-06-30T14:40:02.333Z,64.42
2023-06-30T14:45:02.213Z,63.53
2023-06-30T14:50:01.410Z,65.04
2023-06-30T14:55:02.065Z,65.2
2023-06-30T15:00:02.007Z,61.69
2023-06-30T15:05:01.396Z,61.35
2023-06-30T15:10:01.898Z,63.36
2023-06-30T15:15:01.375Z,61.94
2023-06-30T15:20:01.891Z,64.64
2023-06-30T15:25:02.060Z,61.14
2023-06-30T15:30:02.215Z,64.04
2023-06-30T15:35:01.320Z,65.57
2023-06-30T15:40:01.704Z,58.45
2023-06-30T15:45:01.877Z,62.75
2023-06-30T15:50:01.919Z,62.96
2023-06-30T15:55:02.843Z,59.2
2023-06-30T16:00:01.565Z,61.49
2023-06-30T16:05:01.940Z,63.12
2023-06-30T16:10:01.350Z,58.97
2023-06-30T16:15:01.715Z,61.57
2023-06-30T16:20:01.854Z,60.36
2023-06-30T16:25:02.090Z,59.91
2023-06-30T16:30:01.410Z,59.48
2023-06-30T16:35:03.210Z,62.23
2023-06-30T16:40:01.346Z,60.45
2023-06-30T16:45:01.618Z,59.44
2023-06-30T16:50:02.111Z,62.12
2023-06-30T16:55:02.229Z,62.21
2023-06-30T17:00:02.249Z,62.52
2023-06-30T17:05:01.421Z,62.82
2023-06-30T17:10:01.750Z,61.98
2023-06-30T17:15:01.841Z,63.87
2023-06-30T17:20:02.068Z,64.89
2023-06-30T17:25:05.350Z,65.65
2023-06-30T17:30:02.160Z,66.51
2023-06-30T17:35:01.295Z,66.12
2023-06-30T17:40:01.750Z,67.64
2023-06-30T17:45:01.886Z,67.77
2023-06-30T17:50:02.108Z,68.18
2023-06-30T17:55:02.081Z,68.02
2023-06-30T18:00:02.068Z,70.81
2023-06-30T18:05:01.370Z,68.89
2023-06-30T18:10:01.799Z,67.82
2023-06-30T18:15:01.959Z,68.43
2023-06-30T18:20:02.152Z,70.85
2023-06-30T18:25:02.162Z,69.08
2023-06-30T18:30:02.187Z,73.48
2023-06-30T18:35:01.276Z,70.2
2023-06-30T18:40:01.680Z,74
2023-06-30T18:45:01.959Z,73.83
2023-06-30T18:50:01.382Z,74.65
2023-06-30T18:55:01.740Z,76.13
2023-06-30T19:00:01.941Z,75.18
2023-06-30T19:05:01.343Z,77.28
2023-06-30T19:10:01.786Z,76.27
2023-06-30T19:15:01.780Z,76.58
2023-06-30T19:20:02.047Z,76.99
2023-06-30T19:25:02.133Z,78.14
2023-06-30T19:30:02.125Z,78.76
2023-06-30T19:35:02.124Z,78.55
2023-06-30T19:40:01.418Z,78.79
2023-06-30T19:45:01.555Z,78.79
2023-06-30T19:50:02.105Z,78.45
2023-06-30T19:55:02.256Z,79.07
2023-06-30T20:00:02.057Z,80.84
2023-06-30T20:05:01.603Z,81.62
2023-06-30T20:10:02.157Z,81.97
2023-06-30T20:15:02.141Z,81.85
2023-06-30T20:20:01.329Z,81.33
2023-06-30T20:25:02.224Z,81.33
2023-06-30T20:30:02.200Z,80.25
2023-06-30T20:35:01.282Z,79.52
2023-06-30T20:40:01.561Z,78.25
2023-06-30T20:45:01.984Z,75.5
2023-06-30T20:50:01.404Z,75.36
2023-06-30T20:55:01.676Z,77.32
2023-06-30T21:00:01.958Z,74.82
2023-06-30T21:05:02.295Z,74.39
2023-06-30T21:10:02.190Z,75.99
2023-06-30T21:15:01.895Z,75.94
2023-06-30T21:20:02.181Z,76.58
2023-06-30T21:25:02.082Z,74.43
2023-06-30T21:30:01.990Z,74.17
2023-06-30T21:35:02.147Z,76.97
2023-06-30T21:40:02.436Z,76.71
2023-06-30T21:45:02.232Z,80.59
2023-06-30T21:50:01.363Z,77.45
2023-06-30T21:55:01.672Z,76.53
2023-06-30T22:00:01.762Z,75.87
2023-06-30T22:05:02.237Z,76.16
2023-06-30T22:10:01.622Z,78.5
2023-06-30T22:15:01.832Z,76.48
2023-06-30T22:20:02.217Z,76.59
2023-06-30T22:25:02.168Z,76.19
2023-06-30T22:30:02.200Z,75.91
2023-06-30T22:35:01.472Z,76.83
2023-06-30T22:40:01.748Z,75.65
2023-06-30T22:45:01.964Z,75.29
2023-06-30T22:50:02.200Z,75.65
2023-06-30T22:55:01.249Z,75.65
2023-06-30T23:00:01.685Z,76.23
2023-06-30T23:05:02.122Z,76.38
2023-06-30T23:10:01.969Z,76.38
2023-06-30T23:15:02.137Z,75.87
2023-06-30T23:20:01.309Z,75.71
2023-06-30T23:25:01.590Z,75.56
2023-06-30T23:30:01.579Z,75.38
2023-06-30T23:35:01.746Z,75.92
2023-06-30T23:40:01.982Z,75.96
2023-06-30T23:45:02.024Z,76.18
2023-06-30T23:50:02.157Z,76.78
2023-06-30T23:55:01.422Z,76.69
